createdAt,value
2018-05-07T00:00:52.259Z,0.00
2018-05-07T00:01:52.282Z,0.00
2018-05-07T00:02:52.354Z,0.00
2018-05-07T00:03:52.257Z,0.00
2018-05-07T00:04:52.253Z,0.00
2018-05-07T00:05:52.353Z,0.00
2018-05-07T00:06:52.246Z,0.00
2018-05-07T00:07:52.263Z,0.00
2018-05-07T00:08:52.242Z,0.00
2018-05-07T00:09:52.239Z,0.00
2018-05-07T00:10:52.239Z,0.00
2018-05-07T00:11:52.231Z,0.00
2018-05-07T00:12:52.231Z,0.00
2018-05-07T00:13:52.229Z,0.00
2018-05-07T00:14:52.231Z,0.00
2018-05-07T00:15:52.226Z,0.00
2018-05-07T00:16:52.220Z,0.00
2018-05-07T00:17:52.215Z,0.00
2018-05-07T00:18:52.216Z,0.00
2018-05-07T00:19:52.217Z,0.00
2018-05-07T00:20:52.215Z,0.00
2018-05-07T00:21:52.206Z,0.00
2018-05-07T00:22:52.202Z,0.00
2018-05-07T00:23:52.202Z,0.00
2018-05-07T00:24:52.197Z,0.00
2018-05-07T00:25:52.194Z,0.00
2018-05-07T00:26:52.190Z,0.00
2018-05-07T00:27:52.188Z,0.00
2018-05-07T00:28:52.186Z,0.00
2018-05-07T00:29:52.220Z,0.00
2018-05-07T00:30:52.179Z,0.00
2018-05-07T00:31:52.178Z,0.00
2018-05-07T00:32:52.174Z,0.00
2018-05-07T00:33:52.169Z,0.00
2018-05-07T00:34:52.174Z,0.00
2018-05-07T00:35:52.168Z,0.00
2018-05-07T00:36:52.161Z,0.00
2018-05-07T00:37:52.157Z,0.00
2018-05-07T00:38:52.152Z,0.00
2018-05-07T00:39:52.150Z,0.00
2018-05-07T00:40:52.147Z,0.00
2018-05-07T00:41:52.148Z,0.00
2018-05-07T00:42:52.140Z,0.00
2018-05-07T00:43:52.137Z,0.00
2018-05-07T00:44:52.136Z,0.00
2018-05-07T00:45:52.132Z,0.00
2018-05-07T00:46:52.127Z,0.00
2018-05-07T00:47:52.130Z,0.00
2018-05-07T00:48:52.118Z,0.00
2018-05-07T00:49:52.121Z,0.00
2018-05-07T00:50:52.116Z,0.00
2018-05-07T00:51:52.115Z,0.00
2018-05-07T00:52:52.114Z,0.00
2018-05-07T00:53:52.107Z,0.00
2018-05-07T00:54:52.104Z,0.00
2018-05-07T00:55:52.101Z,0.00
2018-05-07T00:56:52.098Z,0.00
2018-05-07T00:57:52.103Z,0.00
2018-05-07T00:58:52.091Z,0.00
2018-05-07T00:59:52.087Z,0.00
2018-05-07T01:00:52.084Z,0.00
2018-05-07T01:01:52.082Z,0.00
2018-05-07T01:02:52.080Z,0.00
2018-05-07T01:03:52.075Z,0.00
2018-05-07T01:04:52.070Z,0.00
2018-05-07T01:05:52.074Z,0.00
2018-05-07T01:06:52.065Z,0.00
2018-05-07T01:07:52.061Z,0.00
2018-05-07T01:08:52.059Z,0.00
2018-05-07T01:09:52.056Z,0.00
2018-05-07T01:10:52.056Z,0.00
2018-05-07T01:11:52.049Z,0.00
2018-05-07T01:12:52.126Z,0.00
2018-05-07T01:13:52.046Z,0.00
2018-05-07T01:14:52.039Z,0.00
2018-05-07T01:15:52.039Z,0.00
2018-05-07T01:16:52.033Z,0.00
2018-05-07T01:17:52.033Z,0.00
2018-05-07T01:18:52.028Z,0.00
2018-05-07T01:19:52.022Z,0.00
2018-05-07T01:20:52.019Z,0.00
2018-05-07T01:21:52.016Z,0.00
2018-05-07T01:22:52.013Z,0.00
2018-05-07T01:23:52.013Z,0.00
2018-05-07T01:24:52.008Z,0.00
2018-05-07T01:25:52.003Z,0.00
2018-05-07T01:26:51.999Z,0.00
2018-05-07T01:27:51.995Z,0.00
2018-05-07T01:28:52.034Z,0.00
2018-05-07T01:29:51.995Z,0.00
2018-05-07T01:30:51.985Z,0.00
2018-05-07T01:31:51.981Z,0.00
2018-05-07T01:32:51.987Z,0.00
2018-05-07T01:33:51.978Z,0.00
2018-05-07T01:34:51.973Z,0.00
2018-05-07T01:35:51.972Z,0.00
2018-05-07T01:36:51.967Z,0.00
2018-05-07T01:37:51.968Z,0.00
2018-05-07T01:38:51.966Z,0.00
2018-05-07T01:39:51.958Z,0.00
2018-05-07T01:40:51.952Z,0.00
2018-05-07T01:41:51.948Z,0.00
2018-05-07T01:42:51.949Z,0.00
2018-05-07T01:43:51.942Z,0.00
2018-05-07T01:44:51.942Z,0.00
2018-05-07T01:45:51.937Z,0.00
2018-05-07T01:46:51.931Z,0.00
2018-05-07T01:47:51.928Z,0.00
2018-05-07T01:48:51.927Z,0.00
2018-05-07T01:49:51.923Z,0.00
2018-05-07T01:50:51.919Z,0.00
2018-05-07T01:51:51.916Z,0.00
2018-05-07T01:52:51.912Z,0.00
2018-05-07T01:53:51.907Z,0.00
2018-05-07T01:54:51.899Z,0.00
2018-05-07T01:55:51.904Z,0.00
2018-05-07T01:56:51.898Z,0.00
2018-05-07T01:57:51.895Z,0.00
2018-05-07T01:58:51.891Z,0.00
2018-05-07T01:59:51.888Z,0.00
2018-05-07T02:00:51.880Z,0.00
2018-05-07T02:01:51.884Z,0.00
2018-05-07T02:02:51.877Z,0.00
2018-05-07T02:03:51.872Z,0.00
2018-05-07T02:04:51.870Z,0.00
2018-05-07T02:05:51.864Z,0.00
2018-05-07T02:06:51.864Z,0.00
2018-05-07T02:07:51.858Z,0.00
2018-05-07T02:08:51.855Z,0.00
2018-05-07T02:09:51.854Z,0.00
2018-05-07T02:10:51.846Z,0.00
2018-05-07T02:11:51.847Z,0.00
2018-05-07T02:12:51.843Z,0.00
2018-05-07T02:13:51.842Z,0.00
2018-05-07T02:14:51.834Z,0.00
2018-05-07T02:15:51.828Z,0.00
2018-05-07T02:16:51.833Z,0.00
2018-05-07T02:17:51.824Z,0.00
2018-05-07T02:18:51.820Z,0.00
2018-05-07T02:19:51.818Z,0.00
2018-05-07T02:20:51.810Z,0.00
2018-05-07T02:21:51.809Z,0.00
2018-05-07T02:22:51.807Z,0.00
2018-05-07T02:23:51.801Z,0.00
2018-05-07T02:24:51.798Z,0.00
2018-05-07T02:25:51.795Z,0.00
2018-05-07T02:26:51.789Z,0.00
2018-05-07T02:27:51.789Z,0.00
2018-05-07T02:28:51.784Z,0.00
2018-05-07T02:29:51.779Z,0.00
2018-05-07T02:30:51.778Z,0.00
2018-05-07T02:31:51.777Z,0.00
2018-05-07T02:32:51.773Z,0.00
2018-05-07T02:33:51.765Z,0.00
2018-05-07T02:34:51.762Z,0.00
2018-05-07T02:35:51.757Z,0.00
2018-05-07T02:36:51.754Z,0.00
2018-05-07T02:37:51.750Z,0.00
2018-05-07T02:38:51.756Z,0.00
2018-05-07T02:39:51.743Z,0.00
2018-05-07T02:40:51.741Z,0.00
2018-05-07T02:41:51.737Z,0.00
2018-05-07T02:42:51.731Z,0.00
2018-05-07T02:43:51.730Z,0.00
2018-05-07T02:44:51.726Z,0.00
2018-05-07T02:45:51.721Z,4.00
2018-05-07T02:46:51.719Z,4.00
2018-05-07T02:47:51.711Z,0.00
2018-05-07T02:48:51.710Z,0.00
2018-05-07T02:49:51.706Z,4.00
2018-05-07T02:50:51.703Z,4.00
2018-05-07T02:51:51.700Z,4.00
2018-05-07T02:52:51.696Z,4.00
2018-05-07T02:53:51.695Z,4.00
2018-05-07T02:54:51.686Z,8.00
2018-05-07T02:55:51.685Z,4.00
2018-05-07T02:56:51.681Z,4.00
2018-05-07T02:57:51.676Z,4.00
2018-05-07T02:58:51.678Z,8.00
2018-05-07T02:59:51.663Z,8.00
2018-05-07T03:00:51.664Z,12.00
2018-05-07T03:01:51.661Z,12.00
2018-05-07T03:02:51.660Z,12.00
2018-05-07T03:03:51.659Z,20.00
2018-05-07T03:04:51.652Z,20.00
2018-05-07T03:05:51.653Z,20.00
2018-05-07T03:06:51.641Z,24.00
2018-05-07T03:07:51.637Z,24.00
2018-05-07T03:08:51.633Z,32.00
2018-05-07T03:09:51.628Z,32.00
2018-05-07T03:10:51.623Z,40.00
2018-05-07T03:11:51.622Z,44.00
2018-05-07T03:12:51.621Z,52.00
2018-05-07T03:13:51.614Z,52.00
2018-05-07T03:14:51.608Z,60.00
2018-05-07T03:15:51.616Z,64.00
2018-05-07T03:16:51.606Z,72.00
2018-05-07T03:17:51.599Z,80.00
2018-05-07T03:18:51.595Z,88.00
2018-05-07T03:19:51.589Z,96.00
2018-05-07T03:20:51.585Z,104.00
2018-05-07T03:21:51.581Z,116.00
2018-05-07T03:22:51.579Z,124.00
2018-05-07T03:23:51.573Z,136.00
2018-05-07T03:24:51.572Z,144.00
2018-05-07T03:25:51.567Z,156.00
2018-05-07T03:26:51.561Z,168.00
2018-05-07T03:27:51.559Z,184.00
2018-05-07T03:28:51.555Z,196.00
2018-05-07T03:29:51.549Z,212.00
2018-05-07T03:30:51.549Z,224.00
2018-05-07T03:31:51.540Z,240.00
2018-05-07T03:32:51.536Z,256.00
2018-05-07T03:33:51.536Z,272.00
2018-05-07T03:34:51.529Z,288.00
2018-05-07T03:35:51.523Z,308.00
2018-05-07T03:36:51.524Z,324.00
2018-05-07T03:37:51.516Z,344.00
2018-05-07T03:38:51.533Z,364.00
2018-05-07T03:39:51.508Z,380.00
2018-05-07T03:40:51.502Z,404.00
2018-05-07T03:41:51.502Z,416.00
2018-05-07T03:42:51.494Z,436.00
2018-05-07T03:43:51.494Z,452.00
2018-05-07T03:44:51.486Z,472.00
2018-05-07T03:45:51.484Z,492.00
2018-05-07T03:46:51.479Z,512.00
2018-05-07T03:47:51.470Z,532.00
2018-05-07T03:48:51.472Z,556.00
2018-05-07T03:49:51.468Z,576.00
2018-05-07T03:50:51.461Z,592.00
2018-05-07T03:51:51.461Z,616.00
2018-05-07T03:52:51.452Z,636.00
2018-05-07T03:53:51.450Z,660.00
2018-05-07T03:54:51.441Z,684.00
2018-05-07T03:55:51.441Z,708.00
2018-05-07T03:56:51.434Z,744.00
2018-05-07T03:57:51.435Z,800.00
2018-05-07T03:58:51.428Z,872.00
2018-05-07T03:59:51.426Z,932.00
2018-05-07T04:00:51.421Z,984.00
2018-05-07T04:01:51.418Z,1032.00
2018-05-07T04:02:51.417Z,1080.00
2018-05-07T04:03:51.409Z,1116.00
2018-05-07T04:04:51.405Z,1152.00
2018-05-07T04:05:51.402Z,1184.00
2018-05-07T04:06:51.394Z,1220.00
2018-05-07T04:07:51.392Z,1236.00
2018-05-07T04:08:51.393Z,1240.00
2018-05-07T04:09:51.384Z,1288.00
2018-05-07T04:10:51.378Z,1348.00
2018-05-07T04:11:51.375Z,1384.00
2018-05-07T04:12:51.372Z,1424.00
2018-05-07T04:13:51.374Z,1460.00
2018-05-07T04:14:51.364Z,1500.00
2018-05-07T04:15:51.359Z,1548.00
2018-05-07T04:16:51.357Z,1592.00
2018-05-07T04:17:51.352Z,1644.00
2018-05-07T04:18:51.352Z,1708.00
2018-05-07T04:19:51.345Z,1768.00
2018-05-07T04:20:51.340Z,1840.00
2018-05-07T04:21:51.341Z,1932.00
2018-05-07T04:22:51.332Z,2048.00
2018-05-07T04:23:51.327Z,2176.00
2018-05-07T04:24:51.324Z,2324.00
2018-05-07T04:25:51.319Z,2500.00
2018-05-07T04:26:51.317Z,2704.00
2018-05-07T04:27:51.313Z,2940.00
2018-05-07T04:28:51.311Z,3180.00
2018-05-07T04:29:51.307Z,3400.00
2018-05-07T04:30:51.299Z,3568.00
2018-05-07T04:31:51.298Z,3684.00
2018-05-07T04:32:51.295Z,3788.00
2018-05-07T04:33:51.294Z,3860.00
2018-05-07T04:34:51.286Z,3940.00
2018-05-07T04:35:51.285Z,4000.00
2018-05-07T04:36:51.279Z,4048.00
2018-05-07T04:37:51.277Z,4088.00
2018-05-07T04:38:51.272Z,4132.00
2018-05-07T04:39:51.273Z,4176.00
2018-05-07T04:40:51.265Z,4212.00
2018-05-07T04:41:51.269Z,4252.00
2018-05-07T04:42:51.258Z,4280.00
2018-05-07T04:43:51.256Z,4320.00
2018-05-07T04:44:51.258Z,4360.00
2018-05-07T04:45:51.249Z,4392.00
2018-05-07T04:46:51.245Z,4428.00
2018-05-07T04:47:51.244Z,4460.00
2018-05-07T04:48:51.247Z,4496.00
2018-05-07T04:49:51.241Z,4524.00
2018-05-07T04:50:51.239Z,4556.00
2018-05-07T04:51:51.237Z,4584.00
2018-05-07T04:52:51.232Z,4612.00
2018-05-07T04:53:51.229Z,4640.00
2018-05-07T04:54:51.227Z,4664.00
2018-05-07T04:55:51.224Z,4692.00
2018-05-07T04:56:51.221Z,4712.00
2018-05-07T04:57:51.222Z,4740.00
2018-05-07T04:58:51.219Z,4756.00
2018-05-07T04:59:51.218Z,4788.00
2018-05-07T05:00:51.215Z,4816.00
2018-05-07T05:01:51.214Z,4832.00
2018-05-07T05:02:51.215Z,4852.00
2018-05-07T05:03:51.219Z,4872.00
2018-05-07T05:04:51.212Z,4896.00
2018-05-07T05:05:51.210Z,4920.00
2018-05-07T05:06:51.206Z,4940.00
2018-05-07T05:07:51.203Z,4956.00
2018-05-07T05:08:51.206Z,4972.00
2018-05-07T05:09:51.212Z,4992.00
2018-05-07T05:10:51.207Z,5004.00
2018-05-07T05:11:51.204Z,5016.00
2018-05-07T05:12:51.205Z,5028.00
2018-05-07T05:13:51.203Z,5044.00
2018-05-07T05:14:51.208Z,5060.00
2018-05-07T05:15:51.202Z,5076.00
2018-05-07T05:16:51.203Z,5088.00
2018-05-07T05:17:51.208Z,5088.00
2018-05-07T05:18:51.202Z,5112.00
2018-05-07T05:19:51.204Z,5120.00
2018-05-07T05:20:51.203Z,5128.00
2018-05-07T05:21:51.204Z,5140.00
2018-05-07T05:22:51.202Z,5148.00
2018-05-07T05:23:51.261Z,5156.00
2018-05-07T05:24:51.269Z,5164.00
2018-05-07T05:25:51.270Z,5168.00
2018-05-07T05:26:51.280Z,5172.00
2018-05-07T05:27:51.207Z,5176.00
2018-05-07T05:28:51.205Z,5184.00
2018-05-07T05:29:51.205Z,5188.00
2018-05-07T05:30:51.213Z,5180.00
2018-05-07T05:31:51.206Z,5184.00
2018-05-07T05:32:51.211Z,5184.00
2018-05-07T05:33:51.211Z,5188.00
2018-05-07T05:34:51.217Z,5192.00
2018-05-07T05:35:51.217Z,5196.00
2018-05-07T05:36:51.214Z,5196.00
2018-05-07T05:37:51.210Z,5200.00
2018-05-07T05:38:51.215Z,5204.00
2018-05-07T05:39:51.218Z,5208.00
2018-05-07T05:40:51.217Z,5208.00
2018-05-07T05:41:51.221Z,5208.00
2018-05-07T05:42:51.220Z,5208.00
2018-05-07T05:43:51.272Z,5196.00
2018-05-07T05:44:51.227Z,5208.00
2018-05-07T05:45:51.228Z,5208.00
2018-05-07T05:46:51.228Z,5204.00
2018-05-07T05:47:51.231Z,5208.00
2018-05-07T05:48:51.234Z,5216.00
2018-05-07T05:49:51.316Z,5216.00
2018-05-07T05:50:51.238Z,5212.00
2018-05-07T05:51:51.242Z,5220.00
2018-05-07T05:52:51.242Z,5216.00
2018-05-07T05:53:51.246Z,5224.00
2018-05-07T05:54:51.247Z,5232.00
2018-05-07T05:55:51.249Z,5232.00
2018-05-07T05:56:51.251Z,5232.00
2018-05-07T05:57:51.254Z,5240.00
2018-05-07T05:58:51.266Z,5244.00
2018-05-07T05:59:51.256Z,5256.00
2018-05-07T06:00:51.265Z,5276.00
2018-05-07T06:01:51.266Z,5300.00
2018-05-07T06:02:51.266Z,5308.00
2018-05-07T06:03:51.338Z,5324.00
2018-05-07T06:04:51.274Z,5336.00
2018-05-07T06:05:51.274Z,5352.00
2018-05-07T06:06:51.277Z,5364.00
2018-05-07T06:07:51.280Z,5384.00
2018-05-07T06:08:51.281Z,5404.00
2018-05-07T06:09:51.286Z,5452.00
2018-05-07T06:10:51.284Z,5488.00
2018-05-07T06:11:51.289Z,5548.00
2018-05-07T06:12:51.295Z,5616.00
2018-05-07T06:13:51.300Z,5700.00
2018-05-07T06:14:51.428Z,5804.00
2018-05-07T06:15:51.303Z,5892.00
2018-05-07T06:16:51.307Z,6028.00
2018-05-07T06:17:51.308Z,6164.00
2018-05-07T06:18:51.312Z,6332.00
2018-05-07T06:19:51.316Z,6496.00
2018-05-07T06:20:51.317Z,6680.00
2018-05-07T06:21:51.320Z,6864.00
2018-05-07T06:22:51.324Z,7080.00
2018-05-07T06:23:51.328Z,7304.00
2018-05-07T06:24:51.330Z,7556.00
2018-05-07T06:25:51.334Z,7892.00
2018-05-07T06:26:51.335Z,8376.00
2018-05-07T06:27:51.342Z,11708.00
2018-05-07T06:28:51.342Z,16256.00
2018-05-07T06:29:51.349Z,19328.00
2018-05-07T06:30:51.354Z,22848.00
2018-05-07T06:31:51.375Z,23392.00
2018-05-07T06:32:51.362Z,27840.00
2018-05-07T06:33:51.385Z,28352.00
2018-05-07T06:34:51.368Z,28096.00
2018-05-07T06:35:51.372Z,29376.00
2018-05-07T06:36:51.377Z,28480.00
2018-05-07T06:37:51.382Z,29664.00
2018-05-07T06:38:51.392Z,31360.00
2018-05-07T06:39:51.391Z,32096.00
2018-05-07T06:40:51.396Z,34912.00
2018-05-07T06:41:51.405Z,32320.00
2018-05-07T06:42:51.405Z,34208.00
2018-05-07T06:43:51.411Z,29728.00
2018-05-07T06:44:51.415Z,26400.00
2018-05-07T06:45:51.446Z,32288.00
2018-05-07T06:46:51.429Z,28992.00
2018-05-07T06:47:51.435Z,35744.00
2018-05-07T06:48:51.439Z,40064.00
2018-05-07T06:49:51.502Z,34368.00
2018-05-07T06:50:51.449Z,37248.00
2018-05-07T06:51:51.455Z,37984.00
2018-05-07T06:52:51.465Z,36992.00
2018-05-07T06:53:51.469Z,39904.00
2018-05-07T06:54:51.479Z,42848.00
2018-05-07T06:55:51.478Z,44192.00
2018-05-07T06:56:51.486Z,44960.00
2018-05-07T06:57:51.492Z,45824.00
2018-05-07T06:58:51.496Z,47328.00
2018-05-07T06:59:51.504Z,47200.00
2018-05-07T07:00:51.510Z,46144.00
2018-05-07T07:01:51.516Z,47488.00
2018-05-07T07:02:51.633Z,47584.00
2018-05-07T07:03:51.532Z,47424.00
2018-05-07T07:04:51.539Z,51264.00
2018-05-07T07:05:51.548Z,50464.00
2018-05-07T07:06:51.549Z,49408.00
2018-05-07T07:07:51.565Z,53920.00
2018-05-07T07:08:51.568Z,54176.00
2018-05-07T07:09:51.571Z,50880.00
2018-05-07T07:10:51.583Z,49792.00
2018-05-07T07:11:51.587Z,49824.00
2018-05-07T07:12:51.594Z,53472.00
2018-05-07T07:13:51.597Z,53632.00
2018-05-07T07:14:51.603Z,51904.00
2018-05-07T07:15:51.610Z,57248.00
2018-05-07T07:16:51.620Z,60736.00
2018-05-07T07:17:51.625Z,59680.00
2018-05-07T07:18:51.632Z,61088.00
2018-05-07T07:19:51.643Z,58816.00
2018-05-07T07:20:51.648Z,57376.00
2018-05-07T07:21:51.750Z,58464.00
2018-05-07T07:22:51.662Z,56192.00
2018-05-07T07:23:51.667Z,58304.00
2018-05-07T07:24:51.674Z,62016.00
2018-05-07T07:25:51.683Z,55104.00
2018-05-07T07:26:51.685Z,54656.00
2018-05-07T07:27:51.732Z,61376.00
2018-05-07T07:28:51.704Z,57600.00
2018-05-07T07:29:51.712Z,57440.00
2018-05-07T07:30:51.720Z,65408.00
2018-05-07T07:31:51.736Z,60736.00
2018-05-07T07:32:51.739Z,56800.00
2018-05-07T07:33:51.822Z,63488.00
2018-05-07T07:34:51.752Z,60608.00
2018-05-07T07:35:51.800Z,55328.00
2018-05-07T07:36:51.767Z,60000.00
2018-05-07T07:37:51.782Z,61472.00
2018-05-07T07:38:51.785Z,58816.00
2018-05-07T07:39:51.986Z,55840.00
2018-05-07T07:40:51.801Z,54496.00
2018-05-07T07:41:51.809Z,57024.00
2018-05-07T07:42:51.818Z,62240.00
2018-05-07T07:43:51.825Z,66400.00
2018-05-07T07:44:51.832Z,64512.00
2018-05-07T07:45:51.843Z,62816.00
2018-05-07T07:46:51.846Z,64416.00
2018-05-07T07:47:51.859Z,64032.00
2018-05-07T07:48:51.863Z,61472.00
2018-05-07T07:49:51.873Z,59584.00
2018-05-07T07:50:51.880Z,58304.00
2018-05-07T07:51:52.020Z,55936.00
2018-05-07T07:52:52.025Z,56608.00
2018-05-07T07:53:52.068Z,60608.00
2018-05-07T07:54:52.036Z,60800.00
2018-05-07T07:55:52.041Z,54912.00
2018-05-07T07:56:52.047Z,55072.00
2018-05-07T07:57:52.051Z,72640.00
2018-05-07T07:58:52.059Z,84288.00
2018-05-07T07:59:52.110Z,77792.00
2018-05-07T08:00:52.071Z,69728.00
2018-05-07T08:01:52.093Z,68096.00
2018-05-07T08:02:52.088Z,66784.00
2018-05-07T08:03:52.086Z,63904.00
2018-05-07T08:04:52.093Z,64832.00
2018-05-07T08:05:52.153Z,70080.00
2018-05-07T08:06:52.151Z,71136.00
2018-05-07T08:07:52.159Z,69280.00
2018-05-07T08:08:52.204Z,64288.00
2018-05-07T08:09:52.171Z,59072.00
2018-05-07T08:10:52.171Z,59136.00
2018-05-07T08:11:52.177Z,62944.00
2018-05-07T08:12:52.228Z,66208.00
2018-05-07T08:13:52.228Z,61152.00
2018-05-07T08:14:52.237Z,50496.00
2018-05-07T08:15:52.239Z,53984.00
2018-05-07T08:16:52.246Z,68576.00
2018-05-07T08:17:52.345Z,72064.00
2018-05-07T08:18:52.259Z,63264.00
2018-05-07T08:19:52.264Z,57696.00
2018-05-07T08:20:52.268Z,65472.00
2018-05-07T08:21:52.274Z,73216.00
2018-05-07T08:22:52.275Z,71616.00
2018-05-07T08:23:52.279Z,64992.00
2018-05-07T08:24:52.361Z,64064.00
2018-05-07T08:25:52.369Z,68416.00
2018-05-07T08:26:52.353Z,69920.00
2018-05-07T08:27:52.292Z,70176.00
2018-05-07T08:28:52.296Z,74880.00
2018-05-07T08:29:52.299Z,78496.00
2018-05-07T08:30:52.305Z,79136.00
2018-05-07T08:31:52.339Z,75840.00
2018-05-07T08:32:52.310Z,72896.00
2018-05-07T08:33:52.317Z,75456.00
2018-05-07T08:34:52.323Z,79264.00
2018-05-07T08:35:52.321Z,78112.00
2018-05-07T08:36:52.322Z,75680.00
2018-05-07T08:37:52.327Z,75072.00
2018-05-07T08:38:52.334Z,78368.00
2018-05-07T08:39:52.341Z,82816.00
2018-05-07T08:40:52.347Z,83680.00
2018-05-07T08:41:52.361Z,79360.00
2018-05-07T08:42:52.368Z,76544.00
2018-05-07T08:43:52.380Z,79296.00
2018-05-07T08:44:52.392Z,68800.00
2018-05-07T08:45:52.398Z,79616.00
2018-05-07T08:46:52.408Z,73152.00
2018-05-07T08:47:52.414Z,70368.00
2018-05-07T08:48:52.422Z,77184.00
2018-05-07T08:49:52.435Z,85920.00
2018-05-07T08:50:52.459Z,86816.00
2018-05-07T08:51:52.456Z,79520.00
2018-05-07T08:52:52.474Z,62240.00
2018-05-07T08:53:52.472Z,19936.00
2018-05-07T08:54:52.480Z,4120.00
2018-05-07T08:55:52.487Z,4024.00
2018-05-07T08:56:52.496Z,3752.00
2018-05-07T08:57:52.503Z,3312.00
2018-05-07T08:58:52.514Z,3136.00
2018-05-07T08:59:52.516Z,3096.00
2018-05-07T09:00:52.529Z,3060.00
2018-05-07T09:01:52.535Z,3028.00
2018-05-07T09:02:52.541Z,2996.00
2018-05-07T09:03:52.551Z,2976.00
2018-05-07T09:04:52.555Z,2956.00
2018-05-07T09:05:52.562Z,2916.00
2018-05-07T09:06:52.566Z,2876.00
2018-05-07T09:07:52.576Z,2836.00
2018-05-07T09:08:52.583Z,2828.00
2018-05-07T09:09:52.587Z,2816.00
2018-05-07T09:10:52.586Z,2816.00
2018-05-07T09:11:52.596Z,2796.00
2018-05-07T09:12:52.597Z,2768.00
2018-05-07T09:13:52.611Z,2752.00
2018-05-07T09:14:52.609Z,2724.00
2018-05-07T09:15:52.613Z,2712.00
2018-05-07T09:16:52.622Z,2708.00
2018-05-07T09:17:52.625Z,2708.00
2018-05-07T09:18:52.628Z,2708.00
2018-05-07T09:19:52.630Z,2700.00
2018-05-07T09:20:52.638Z,2688.00
2018-05-07T09:21:52.642Z,2700.00
2018-05-07T09:22:52.647Z,2700.00
2018-05-07T09:23:52.649Z,2684.00
2018-05-07T09:24:52.687Z,2664.00
2018-05-07T09:25:52.656Z,2652.00
2018-05-07T09:26:52.660Z,2668.00
2018-05-07T09:27:52.689Z,2668.00
2018-05-07T09:28:52.669Z,2684.00
2018-05-07T09:29:52.671Z,2680.00
2018-05-07T09:30:52.678Z,2684.00
2018-05-07T09:31:52.692Z,2692.00
2018-05-07T09:32:52.681Z,2684.00
2018-05-07T09:33:52.686Z,2696.00
2018-05-07T09:34:52.689Z,2704.00
2018-05-07T09:35:52.693Z,2688.00
2018-05-07T09:36:52.696Z,2648.00
2018-05-07T09:37:52.698Z,2628.00
2018-05-07T09:38:52.701Z,2628.00
2018-05-07T09:39:52.709Z,2640.00
2018-05-07T09:40:52.767Z,2628.00
2018-05-07T09:41:52.713Z,2580.00
2018-05-07T09:42:52.728Z,2540.00
2018-05-07T09:43:52.718Z,2564.00
2018-05-07T09:44:52.722Z,2576.00
2018-05-07T09:45:52.726Z,2560.00
2018-05-07T09:46:52.731Z,2528.00
2018-05-07T09:47:52.733Z,2520.00
2018-05-07T09:48:52.831Z,2512.00
2018-05-07T09:49:52.739Z,2508.00
2018-05-07T09:50:52.740Z,2508.00
2018-05-07T09:51:52.744Z,2504.00
2018-05-07T09:52:52.748Z,2520.00
2018-05-07T09:53:52.757Z,2564.00
2018-05-07T09:54:52.756Z,2520.00
2018-05-07T09:55:52.756Z,2488.00
2018-05-07T09:56:52.852Z,2516.00
2018-05-07T09:57:52.764Z,2496.00
2018-05-07T09:58:52.829Z,2460.00
2018-05-07T09:59:52.770Z,2460.00
2018-05-07T10:00:52.781Z,2424.00
2018-05-07T10:01:52.780Z,2432.00
2018-05-07T10:02:52.778Z,2416.00
2018-05-07T10:03:52.781Z,2424.00
2018-05-07T10:04:52.805Z,2412.00
2018-05-07T10:05:52.794Z,2408.00
2018-05-07T10:06:52.789Z,2384.00
2018-05-07T10:07:52.794Z,2400.00
2018-05-07T10:08:52.798Z,2444.00
2018-05-07T10:09:52.801Z,2444.00
2018-05-07T10:10:52.803Z,2404.00
2018-05-07T10:11:52.805Z,2348.00
2018-05-07T10:12:52.809Z,2328.00
2018-05-07T10:13:52.812Z,2312.00
2018-05-07T10:14:52.820Z,2320.00
2018-05-07T10:15:52.822Z,2348.00
2018-05-07T10:16:52.822Z,2368.00
2018-05-07T10:17:52.829Z,2380.00
2018-05-07T10:18:52.825Z,2360.00
2018-05-07T10:19:52.830Z,2356.00
2018-05-07T10:20:52.834Z,2348.00
2018-05-07T10:21:52.880Z,2324.00
2018-05-07T10:22:52.839Z,2316.00
2018-05-07T10:23:52.844Z,2304.00
2018-05-07T10:24:52.843Z,2304.00
2018-05-07T10:25:52.849Z,2300.00
2018-05-07T10:26:52.853Z,2280.00
2018-05-07T10:27:52.951Z,2256.00
2018-05-07T10:28:52.861Z,2236.00
2018-05-07T10:29:52.895Z,2232.00
2018-05-07T10:30:52.864Z,2220.00
2018-05-07T10:31:52.869Z,2252.00
2018-05-07T10:32:52.871Z,2256.00
2018-05-07T10:33:52.879Z,2236.00
2018-05-07T10:34:52.886Z,2208.00
2018-05-07T10:35:52.890Z,2200.00
2018-05-07T10:36:52.893Z,2200.00
2018-05-07T10:37:52.889Z,2228.00
2018-05-07T10:38:52.888Z,2240.00
2018-05-07T10:39:52.900Z,2224.00
2018-05-07T10:40:52.900Z,2204.00
2018-05-07T10:41:52.967Z,2176.00
2018-05-07T10:42:52.909Z,2160.00
2018-05-07T10:43:52.911Z,2144.00
2018-05-07T10:44:52.917Z,2164.00
2018-05-07T10:45:52.926Z,2168.00
2018-05-07T10:46:52.924Z,2168.00
2018-05-07T10:47:52.929Z,2188.00
2018-05-07T10:48:52.935Z,2184.00
2018-05-07T10:49:52.937Z,2180.00
2018-05-07T10:50:52.940Z,2168.00
2018-05-07T10:51:52.963Z,2160.00
2018-05-07T10:52:52.993Z,2172.00
2018-05-07T10:53:52.967Z,2196.00
2018-05-07T10:54:52.971Z,2204.00
2018-05-07T10:55:53.037Z,2196.00
2018-05-07T10:56:52.981Z,2204.00
2018-05-07T10:57:52.984Z,2212.00
2018-05-07T10:58:52.986Z,2228.00
2018-05-07T10:59:52.989Z,2224.00
2018-05-07T11:00:52.995Z,2212.00
2018-05-07T11:01:52.999Z,2192.00
2018-05-07T11:02:53.001Z,2196.00
2018-05-07T11:03:53.007Z,2188.00
2018-05-07T11:04:53.006Z,2164.00
2018-05-07T11:05:53.011Z,2172.00
2018-05-07T11:06:53.017Z,2156.00
2018-05-07T11:07:53.023Z,2152.00
2018-05-07T11:08:53.022Z,2160.00
2018-05-07T11:09:53.025Z,2172.00
2018-05-07T11:10:53.030Z,2176.00
2018-05-07T11:11:53.032Z,2188.00
2018-05-07T11:12:53.055Z,2184.00
2018-05-07T11:13:53.044Z,2200.00
2018-05-07T11:14:53.040Z,2200.00
2018-05-07T11:15:53.048Z,2200.00
2018-05-07T11:16:53.088Z,2196.00
2018-05-07T11:17:53.056Z,2200.00
2018-05-07T11:18:53.060Z,2216.00
2018-05-07T11:19:53.125Z,2216.00
2018-05-07T11:20:53.070Z,2212.00
2018-05-07T11:21:53.058Z,2212.00
2018-05-07T11:22:53.061Z,2196.00
2018-05-07T11:23:53.064Z,2180.00
2018-05-07T11:24:53.066Z,2180.00
2018-05-07T11:25:53.074Z,2168.00
2018-05-07T11:26:53.080Z,2144.00
2018-05-07T11:27:53.089Z,2140.00
2018-05-07T11:28:53.093Z,2140.00
2018-05-07T11:29:53.103Z,2156.00
2018-05-07T11:30:53.104Z,2160.00
2018-05-07T11:31:53.110Z,2168.00
2018-05-07T11:32:53.116Z,2192.00
2018-05-07T11:33:53.122Z,2208.00
2018-05-07T11:34:53.131Z,2216.00
2018-05-07T11:35:53.129Z,2232.00
2018-05-07T11:36:53.136Z,2228.00
2018-05-07T11:37:53.142Z,2232.00
2018-05-07T11:38:53.201Z,2232.00
2018-05-07T11:39:53.171Z,2228.00
2018-05-07T11:40:53.157Z,2208.00
2018-05-07T11:41:53.164Z,2164.00
2018-05-07T11:42:53.177Z,2144.00
2018-05-07T11:43:53.175Z,2164.00
2018-05-07T11:44:53.203Z,2180.00
2018-05-07T11:45:53.208Z,2180.00
2018-05-07T11:46:53.209Z,2184.00
2018-05-07T11:47:53.214Z,2184.00
2018-05-07T11:48:53.218Z,2216.00
2018-05-07T11:49:53.224Z,2248.00
2018-05-07T11:50:53.231Z,2260.00
2018-05-07T11:51:53.238Z,2264.00
2018-05-07T11:52:53.243Z,2252.00
2018-05-07T11:53:53.251Z,2248.00
2018-05-07T11:54:53.256Z,2236.00
2018-05-07T11:55:53.269Z,2240.00
2018-05-07T11:56:53.269Z,2240.00
2018-05-07T11:57:53.268Z,2248.00
2018-05-07T11:58:53.272Z,2240.00
2018-05-07T11:59:53.276Z,2252.00
2018-05-07T12:00:53.280Z,2268.00
2018-05-07T12:01:53.284Z,2268.00
2018-05-07T12:02:53.287Z,2252.00
2018-05-07T12:03:53.291Z,2256.00
2018-05-07T12:04:53.296Z,2236.00
2018-05-07T12:05:53.297Z,2228.00
2018-05-07T12:06:53.301Z,2232.00
2018-05-07T12:07:53.309Z,2244.00
2018-05-07T12:08:53.310Z,2240.00
2018-05-07T12:09:53.313Z,2244.00
2018-05-07T12:10:53.315Z,2244.00
2018-05-07T12:11:53.319Z,2248.00
2018-05-07T12:12:53.324Z,2260.00
2018-05-07T12:13:53.439Z,2256.00
2018-05-07T12:14:53.336Z,2252.00
2018-05-07T12:15:53.373Z,2268.00
2018-05-07T12:16:53.342Z,2268.00
2018-05-07T12:17:53.348Z,2252.00
2018-05-07T12:18:53.351Z,2228.00
2018-05-07T12:19:53.356Z,2220.00
2018-05-07T12:20:53.359Z,2208.00